<?xml version="1.0" encoding="utf-8"?>
<gpx xmlns:xsi="http://www.w3.org/2001/XMLSchema-instance" xmlns:xsd="http://www.w3.org/2001/XMLSchema" version="1.1" creator="Shapelink.com" xmlns="http://www.topografix.com/GPX/1/1" xmlns:gpxtpx="http://www.garmin.com/xmlschemas/TrackPointExtension/v1">
  <metadata>
    <name>Övrigt 1.76 km, 2020-06-06</name>
    <desc></desc>
    <author><name>Marian Moron</name></author> 
    <time>2020-06-06T20:28:56Z</time>
  </metadata>
  <trk>
    <name>Övrigt 1.76 km, 2020-06-06</name>
    <trkseg>
      <trkpt lat="51.229751693344" lon="4.458753968113">
        <ele>0.4</ele>
        <time>2020-06-06T20:28:56Z</time>
      </trkpt>
      <trkpt lat="51.229339806778" lon="4.458157595928">
        <ele>6</ele>
        <time>2020-06-06T20:29:19Z</time>
      </trkpt>
      <trkpt lat="51.228933619904" lon="4.458278379107">
        <ele>2.6</ele>
        <time>2020-06-06T20:29:49Z</time>
      </trkpt>
      <trkpt lat="51.228626590907" lon="4.458451213885">
        <ele>0</ele>
        <time>2020-06-06T20:30:08Z</time>
      </trkpt>
      <trkpt lat="51.228658945041" lon="4.458881456812">
        <ele>0</ele>
        <time>2020-06-06T20:30:27Z</time>
      </trkpt>
      <trkpt lat="51.228693729926" lon="4.459151270173">
        <ele>0.2</ele>
        <time>2020-06-06T20:30:38Z</time>
      </trkpt>
      <trkpt lat="51.228564229571" lon="4.45948512125">
        <ele>1.8</ele>
        <time>2020-06-06T20:30:56Z</time>
      </trkpt>
      <trkpt lat="51.228434813035" lon="4.45964689192">
        <ele>0.4</ele>
        <time>2020-06-06T20:31:12Z</time>
      </trkpt>
      <trkpt lat="51.228364237437" lon="4.460005972516">
        <ele>1</ele>
        <time>2020-06-06T20:31:38Z</time>
      </trkpt>
      <trkpt lat="51.228312102019" lon="4.460350049511">
        <ele>1.2</ele>
        <time>2020-06-06T20:31:56Z</time>
      </trkpt>
      <trkpt lat="51.228387203843" lon="4.460897303762">
        <ele>2.2</ele>
        <time>2020-06-06T20:32:33Z</time>
      </trkpt>
      <trkpt lat="51.228429113343" lon="4.460915827761">
        <ele>2.4</ele>
        <time>2020-06-06T20:32:37Z</time>
      </trkpt>
      <trkpt lat="51.228812501449" lon="4.461609429986">
        <ele>18.6</ele>
        <time>2020-06-06T20:33:20Z</time>
      </trkpt>
      <trkpt lat="51.229100252076" lon="4.461585206295">
        <ele>34.4</ele>
        <time>2020-06-06T20:33:47Z</time>
      </trkpt>
      <trkpt lat="51.229184238714" lon="4.46148923354">
        <ele>33.2</ele>
        <time>2020-06-06T20:33:54Z</time>
      </trkpt>
      <trkpt lat="51.229616074202" lon="4.461120262302">
        <ele>13.4</ele>
        <time>2020-06-06T20:34:20Z</time>
      </trkpt>
      <trkpt lat="51.229629317604" lon="4.461129901487">
        <ele>12.8</ele>
        <time>2020-06-06T20:34:21Z</time>
      </trkpt>
      <trkpt lat="51.229760326701" lon="4.461248505372">
        <ele>5</ele>
        <time>2020-06-06T20:34:41Z</time>
      </trkpt>
      <trkpt lat="51.229961995215" lon="4.461900030459">
        <ele>2.6</ele>
        <time>2020-06-06T20:35:30Z</time>
      </trkpt>
      <trkpt lat="51.23006467349" lon="4.462294817949">
        <ele>2.6</ele>
        <time>2020-06-06T20:35:51Z</time>
      </trkpt>
      <trkpt lat="51.230178751149" lon="4.462669656517">
        <ele>0.8</ele>
        <time>2020-06-06T20:36:23Z</time>
      </trkpt>
      <trkpt lat="51.230228036721" lon="4.462829331712">
        <ele>1.8</ele>
        <time>2020-06-06T20:36:43Z</time>
      </trkpt>
      <trkpt lat="51.230279501587" lon="4.463073831735">
        <ele>4.8</ele>
        <time>2020-06-06T20:37:08Z</time>
      </trkpt>
      <trkpt lat="51.230458874247" lon="4.463746227753">
        <ele>4.2</ele>
        <time>2020-06-06T20:37:45Z</time>
      </trkpt>
      <trkpt lat="51.230571694621" lon="4.4640658296">
        <ele>2.2</ele>
        <time>2020-06-06T20:38:04Z</time>
      </trkpt>
      <trkpt lat="51.230502879222" lon="4.464261463146">
        <ele>3.2</ele>
        <time>2020-06-06T20:38:27Z</time>
      </trkpt>
      <trkpt lat="51.230419982231" lon="4.464034062199">
        <ele>5.4</ele>
        <time>2020-06-06T20:38:49Z</time>
      </trkpt>
      <trkpt lat="51.230115886899" lon="4.464138416854">
        <ele>3</ele>
        <time>2020-06-06T20:40:28Z</time>
      </trkpt>
      <trkpt lat="51.229697127175" lon="4.464386437275">
        <ele>4</ele>
        <time>2020-06-06T20:41:15Z</time>
      </trkpt>
      <trkpt lat="51.22937400493" lon="4.464390795863">
        <ele>8.8</ele>
        <time>2020-06-06T20:41:57Z</time>
      </trkpt>
      <trkpt lat="51.228982234924" lon="4.464450642629">
        <ele>9</ele>
        <time>2020-06-06T20:42:34Z</time>
      </trkpt>
      <trkpt lat="51.228884334332" lon="4.46444217691">
        <ele>2.4</ele>
        <time>2020-06-06T20:42:53Z</time>
      </trkpt>
      <trkpt lat="51.228630781857" lon="4.464571341989">
        <ele>5.8</ele>
        <time>2020-06-06T20:43:23Z</time>
      </trkpt>
      <trkpt lat="51.22858610633" lon="4.464543262624">
        <ele>5.4</ele>
        <time>2020-06-06T20:43:26Z</time>
      </trkpt>
      <trkpt lat="51.228552159635" lon="4.464202203113">
        <ele>4.2</ele>
        <time>2020-06-06T20:43:44Z</time>
      </trkpt>
      <trkpt lat="51.228453337034" lon="4.463751843626">
        <ele>0.8</ele>
        <time>2020-06-06T20:44:31Z</time>
      </trkpt>
      <trkpt lat="51.228377145563" lon="4.463503320291">
        <ele>2.6</ele>
        <time>2020-06-06T20:45:24Z</time>
      </trkpt>
      <trkpt lat="51.228090233126" lon="4.463362420552">
        <ele>8.8</ele>
        <time>2020-06-06T20:45:53Z</time>
      </trkpt>
      <trkpt lat="51.228059974467" lon="4.463349596245">
        <ele>8.2</ele>
        <time>2020-06-06T20:45:55Z</time>
      </trkpt>
      <trkpt lat="51.227880685626" lon="4.463277344267">
        <ele>2.8</ele>
        <time>2020-06-06T20:46:07Z</time>
      </trkpt>
      <trkpt lat="51.227664516425" lon="4.462699160805">
        <ele>11.4</ele>
        <time>2020-06-06T20:46:47Z</time>
      </trkpt>
      <trkpt lat="51.227666695719" lon="4.462679714797">
        <ele>11.8</ele>
        <time>2020-06-06T20:46:48Z</time>
      </trkpt>
      <trkpt lat="51.227690165039" lon="4.462431526738">
        <ele>19.2</ele>
        <time>2020-06-06T20:47:03Z</time>
      </trkpt>
      <trkpt lat="51.227537865916" lon="4.462038750904">
        <ele>12.8</ele>
        <time>2020-06-06T20:47:31Z</time>
      </trkpt>
      <trkpt lat="51.227327899321" lon="4.461393847518">
        <ele>5.2</ele>
        <time>2020-06-06T20:48:06Z</time>
      </trkpt>
      <trkpt lat="51.227327061131" lon="4.461201985827">
        <ele>2</ele>
        <time>2020-06-06T20:48:37Z</time>
      </trkpt>
      <trkpt lat="51.227347345329" lon="4.460955809424">
        <ele>3.8</ele>
        <time>2020-06-06T20:48:54Z</time>
      </trkpt>
      <trkpt lat="51.227274422799" lon="4.460246030132">
        <ele>8.8</ele>
        <time>2020-06-06T20:49:36Z</time>
      </trkpt>
      <trkpt lat="51.227232261842" lon="4.460088869507">
        <ele>9.4</ele>
        <time>2020-06-06T20:49:53Z</time>
      </trkpt>
      <trkpt lat="51.227090607732" lon="4.459384706088">
        <ele>9.8</ele>
        <time>2020-06-06T20:50:31Z</time>
      </trkpt>
      <trkpt lat="51.227030928604" lon="4.459168872163">
        <ele>4.6</ele>
        <time>2020-06-06T20:50:49Z</time>
      </trkpt>
      <trkpt lat="51.227045680748" lon="4.45915571258">
        <ele>4.6</ele>
        <time>2020-06-06T20:50:51Z</time>
      </trkpt>
      <trkpt lat="51.227128158644" lon="4.45908362824">
        <ele>4</ele>
        <time>2020-06-06T20:51:06Z</time>
      </trkpt>
      <trkpt lat="51.227333263737" lon="4.459013387918">
        <ele>11.2</ele>
        <time>2020-06-06T20:51:37Z</time>
      </trkpt>
      <trkpt lat="51.227543062694" lon="4.458866369392">
        <ele>12.6</ele>
        <time>2020-06-06T20:51:54Z</time>
      </trkpt>
      <trkpt lat="51.227801141395" lon="4.458763858755">
        <ele>7.4</ele>
        <time>2020-06-06T20:52:14Z</time>
      </trkpt>
      <trkpt lat="51.22821562635" lon="4.458446268564">
        <ele>9.8</ele>
        <time>2020-06-06T20:52:49Z</time>
      </trkpt>
      <trkpt lat="51.228487116091" lon="4.458230937553">
        <ele>4.2</ele>
        <time>2020-06-06T20:53:13Z</time>
      </trkpt>
      <trkpt lat="51.228523577356" lon="4.458236972521">
        <ele>3.2</ele>
        <time>2020-06-06T20:53:16Z</time>
      </trkpt>
      <trkpt lat="51.228958933242" lon="4.458120631749">
        <ele>1.4</ele>
        <time>2020-06-06T20:53:48Z</time>
      </trkpt>
      <trkpt lat="51.229402251933" lon="4.458020300406">
        <ele>0</ele>
        <time>2020-06-06T20:54:42Z</time>
      </trkpt>
      <trkpt lat="51.229461595785" lon="4.458008817203">
        <ele>0</ele>
        <time>2020-06-06T20:54:50Z</time>
      </trkpt>
      <trkpt lat="51.229566704811" lon="4.457911251887">
        <ele>0</ele>
        <time>2020-06-06T20:55:03Z</time>
      </trkpt>
    </trkseg>
  </trk>
</gpx>